Time;durP1;ratioP1;P1;durP2;ratioP2;P2;SDS_P1;SDS_P2;PMS_P1;PMS_P2;Temp;Humidity;BMP_temperature;BMP_pressure;BME280_temperature;BME280_humidity;BME280_pressure;Samples;Min_cycle;Max_cycle;Signal;HPM_P1;HPM_P2
2023/05/15 00:01:05;;;;;;;;;;;9.70;99.90;;;;;;5031174;28;19915;-88
2023/05/15 00:03:31;;;;;;;;;;;9.60;99.90;;;;;;5035471;28;20265;-88
2023/05/15 00:05:57;;;;;;;;;;;9.60;99.90;;;;;;5035394;28;19913;-88
2023/05/15 00:08:22;;;;;;;;;;;9.70;99.90;;;;;;5034979;28;19993;-88
2023/05/15 00:10:48;;;;;;;;;;;9.60;99.90;;;;;;5025347;28;20288;-88
2023/05/15 00:13:15;;;;;;;;;;;9.70;99.90;;;;;;5034849;28;19909;-88
2023/05/15 00:15:41;;;;;;;;;;;9.70;99.90;;;;;;5025783;28;19910;-87
2023/05/15 00:18:06;;;;;;;;;;;9.70;99.90;;;;;;5036531;28;20390;-88
2023/05/15 00:20:32;;;;;;;;;;;9.70;99.90;;;;;;5029922;28;19909;-87
2023/05/15 00:22:58;;;;;;;;;;;9.70;99.90;;;;;;5037284;28;19909;-87
2023/05/15 00:29:17;;;;;;;;;;;9.80;99.90;;;;;;5029459;28;19972;-87
2023/05/15 00:31:43;;;;;;;;;;;9.90;99.90;;;;;;5030506;28;20249;-87
2023/05/15 00:34:09;;;;;;;;;;;9.90;99.90;;;;;;5007267;28;19977;-87
2023/05/15 00:36:36;;;;;;;;;;;9.80;99.90;;;;;;5025250;28;19916;-87
2023/05/15 00:39:02;;;;;;;;;;;9.80;99.90;;;;;;5033425;28;20368;-87
2023/05/15 00:41:30;;;;;;;;;;;9.90;99.90;;;;;;5024643;28;19916;-88
2023/05/15 00:43:56;;;;;;;;;;;9.90;99.90;;;;;;5023248;28;19963;-88
2023/05/15 00:46:23;;;;;;;;;;;9.80;99.90;;;;;;5020320;28;20332;-88
2023/05/15 00:48:49;;;;;;;;;;;9.90;99.90;;;;;;5036436;28;24138;-88
2023/05/15 00:51:15;;;;;;;;;;;9.80;99.90;;;;;;5035600;28;19909;-87
2023/05/15 00:53:41;;;;;;;;;;;9.80;99.90;;;;;;5033730;28;19913;-87
2023/05/15 00:56:08;;;;;;;;;;;9.80;99.90;;;;;;5022014;28;20265;-87
2023/05/15 00:58:35;;;;;;;;;;;9.80;99.90;;;;;;5035437;28;19916;-88
2023/05/15 01:01:01;;;;;;;;;;;9.80;99.90;;;;;;5033000;28;19909;-88
2023/05/15 01:03:27;;;;;;;;;;;9.80;99.90;;;;;;5035545;28;20919;-88
2023/05/15 01:05:53;;;;;;;;;;;9.80;99.90;;;;;;5013938;28;19909;-88
2023/05/15 01:08:26;;;;;;;;;;;9.80;99.90;;;;;;5026914;28;20012;-88
2023/05/15 01:11:16;;;;;;;;;;;9.70;99.90;;;;;;5038787;28;19909;-88
2023/05/15 01:13:42;;;;;;;;;;;9.70;99.90;;;;;;5012946;28;19913;-88
2023/05/15 01:16:09;;;;;;;;;;;9.70;99.90;;;;;;5029418;28;19905;-88
2023/05/15 01:18:35;;;;;;;;;;;9.70;99.90;;;;;;5028311;28;19909;-88
2023/05/15 01:21:03;;;;;;;;;;;9.70;99.90;;;;;;5031336;28;19995;-88
2023/05/15 01:23:48;;;;;;;;;;;9.60;99.90;;;;;;5016481;28;19940;-87
2023/05/15 01:26:31;;;;;;;;;;;9.50;99.90;;;;;;5033087;28;19959;-88
2023/05/15 01:29:05;;;;;;;;;;;9.40;99.90;;;;;;5039724;28;20276;-88
2023/05/15 01:31:33;;;;;;;;;;;9.30;99.90;;;;;;5016199;28;19909;-88
2023/05/15 01:34:01;;;;;;;;;;;9.20;99.90;;;;;;5029524;28;24069;-88
2023/05/15 01:36:46;;;;;;;;;;;9.20;99.90;;;;;;5016500;28;24074;-88
2023/05/15 01:39:14;;;;;;;;;;;9.20;99.90;;;;;;5035555;28;19960;-88
2023/05/15 01:41:41;;;;;;;;;;;9.20;99.90;;;;;;5032689;28;19909;-88
2023/05/15 01:44:11;;;;;;;;;;;9.10;99.90;;;;;;5007794;28;19913;-89
2023/05/15 01:46:39;;;;;;;;;;;9.20;99.90;;;;;;5007454;28;20409;-88
2023/05/15 01:49:07;;;;;;;;;;;9.10;99.90;;;;;;5038986;28;19909;-88
2023/05/15 01:51:35;;;;;;;;;;;9.20;99.90;;;;;;5035526;28;20330;-87
2023/05/15 01:54:02;;;;;;;;;;;9.10;99.90;;;;;;5038537;28;19913;-88
2023/05/15 01:56:28;;;;;;;;;;;9.10;99.90;;;;;;5027088;28;19916;-88
2023/05/15 01:58:54;;;;;;;;;;;9.10;99.90;;;;;;5044598;28;19910;-88
2023/05/15 02:01:21;;;;;;;;;;;9.00;99.90;;;;;;5031995;28;19959;-88
2023/05/15 02:03:47;;;;;;;;;;;9.00;99.90;;;;;;5030569;28;20391;-88
2023/05/15 02:06:13;;;;;;;;;;;9.00;99.90;;;;;;5023571;28;19905;-88
2023/05/15 02:08:39;;;;;;;;;;;9.00;99.90;;;;;;5019135;28;19909;-89
2023/05/15 02:11:30;;;;;;;;;;;8.90;99.90;;;;;;5029658;28;19916;-89
2023/05/15 02:13:56;;;;;;;;;;;8.90;99.90;;;;;;5024070;28;20371;-88
2023/05/15 02:16:21;;;;;;;;;;;8.90;99.90;;;;;;5015119;28;19913;-88
2023/05/15 02:18:47;;;;;;;;;;;8.80;99.90;;;;;;5023659;28;19992;-88
2023/05/15 02:21:13;;;;;;;;;;;8.80;99.90;;;;;;5020921;28;19912;-88
2023/05/15 02:23:39;;;;;;;;;;;8.80;99.90;;;;;;5039666;28;19909;-88
2023/05/15 02:26:06;;;;;;;;;;;8.80;99.90;;;;;;5033241;28;19913;-89
2023/05/15 02:28:42;;;;;;;;;;;8.80;99.90;;;;;;5032961;28;19909;-88
2023/05/15 02:31:13;;;;;;;;;;;8.70;99.90;;;;;;5038121;28;20000;-88
2023/05/15 02:33:48;;;;;;;;;;;8.70;99.90;;;;;;5035182;28;19920;-88
2023/05/15 02:36:19;;;;;;;;;;;8.70;99.90;;;;;;5044518;28;24066;-88
2023/05/15 02:38:48;;;;;;;;;;;8.70;99.90;;;;;;5018263;28;19916;-88
2023/05/15 02:41:15;;;;;;;;;;;8.60;99.90;;;;;;5034134;28;20352;-88
2023/05/15 02:43:41;;;;;;;;;;;8.60;99.90;;;;;;5029730;28;19916;-89
2023/05/15 02:46:23;;;;;;;;;;;8.60;99.90;;;;;;5042507;28;24085;-88
2023/05/15 02:48:49;;;;;;;;;;;8.60;99.90;;;;;;5014876;28;20012;-88
2023/05/15 02:51:15;;;;;;;;;;;8.50;99.90;;;;;;5026375;28;19937;-89
2023/05/15 02:53:41;;;;;;;;;;;8.50;99.90;;;;;;5042043;28;24086;-88
2023/05/15 02:56:07;;;;;;;;;;;8.50;99.90;;;;;;5026433;28;19913;-88
2023/05/15 02:58:33;;;;;;;;;;;8.40;99.90;;;;;;5023496;28;20003;-88
2023/05/15 03:00:59;;;;;;;;;;;8.40;99.90;;;;;;5035929;28;24079;-88
2023/05/15 03:03:25;;;;;;;;;;;8.40;99.90;;;;;;5040612;28;20351;-88
2023/05/15 03:05:51;;;;;;;;;;;8.40;99.90;;;;;;5004669;28;19996;-88
2023/05/15 03:08:18;;;;;;;;;;;8.40;99.90;;;;;;5022000;28;19913;-88
2023/05/15 03:10:43;;;;;;;;;;;8.40;99.90;;;;;;5018655;28;19996;-88
2023/05/15 03:13:09;;;;;;;;;;;8.40;99.90;;;;;;5019172;28;19952;-88
2023/05/15 03:19:04;;;;;;;;;;;8.50;99.90;;;;;;5032123;28;20063;-88
2023/05/15 03:21:29;;;;;;;;;;;8.40;99.90;;;;;;5022012;28;19909;-88
2023/05/15 03:27:24;;;;;;;;;;;8.40;99.90;;;;;;5026704;28;20046;-88
2023/05/15 03:29:50;;;;;;;;;;;8.40;99.90;;;;;;5005324;28;20376;-89
2023/05/15 03:32:28;;;;;;;;;;;8.40;99.90;;;;;;5041606;28;19909;-88
2023/05/15 03:34:53;;;;;;;;;;;8.30;99.90;;;;;;5035748;28;19920;-88
2023/05/15 03:37:19;;;;;;;;;;;8.30;99.90;;;;;;5026958;28;19925;-89
2023/05/15 03:39:44;;;;;;;;;;;8.20;99.90;;;;;;5036746;28;19963;-88
2023/05/15 03:42:11;;;;;;;;;;;8.10;99.90;;;;;;5034864;28;19910;-91
2023/05/15 03:44:37;;;;;;;;;;;8.10;99.90;;;;;;5043943;28;20004;-91
2023/05/15 03:47:03;;;;;;;;;;;8.00;99.90;;;;;;5024716;28;19970;-91
2023/05/15 03:49:28;;;;;;;;;;;7.90;99.90;;;;;;5038907;28;19956;-91
2023/05/15 03:51:55;;;;;;;;;;;7.90;99.90;;;;;;5042578;28;19908;-90
2023/05/15 03:54:20;;;;;;;;;;;7.90;99.90;;;;;;5032717;28;19941;-90
2023/05/15 03:56:48;;;;;;;;;;;7.80;99.90;;;;;;5040495;28;20375;-90
2023/05/15 03:59:14;;;;;;;;;;;7.80;99.90;;;;;;5032785;28;24083;-90
2023/05/15 04:01:39;;;;;;;;;;;7.80;99.90;;;;;;5029764;28;19910;-91
2023/05/15 04:04:05;;;;;;;;;;;7.70;99.90;;;;;;5023396;28;20424;-90
2023/05/15 04:06:30;;;;;;;;;;;7.70;99.90;;;;;;5038695;28;19905;-90
2023/05/15 04:11:59;;;;;;;;;;;7.60;99.90;;;;;;5035312;28;19912;-91
2023/05/15 04:14:25;;;;;;;;;;;7.60;99.90;;;;;;5033992;28;19937;-91
2023/05/15 04:16:51;;;;;;;;;;;7.60;99.90;;;;;;5041234;28;24054;-91
2023/05/15 04:19:16;;;;;;;;;;;7.70;99.90;;;;;;5037184;28;19913;-91
2023/05/15 04:21:42;;;;;;;;;;;7.60;99.90;;;;;;5033633;28;20388;-90
2023/05/15 04:24:07;;;;;;;;;;;7.70;99.90;;;;;;5036165;28;19917;-90
2023/05/15 04:26:33;;;;;;;;;;;7.70;99.90;;;;;;5036451;28;19905;-91
2023/05/15 04:28:59;;;;;;;;;;;7.70;99.90;;;;;;5022330;28;19964;-91
2023/05/15 04:31:25;;;;;;;;;;;7.70;99.90;;;;;;5039874;28;24079;-91
2023/05/15 04:33:51;;;;;;;;;;;7.70;99.90;;;;;;5033157;28;20268;-91
2023/05/15 04:36:17;;;;;;;;;;;7.70;99.90;;;;;;5025709;28;19909;-91
2023/05/15 04:38:42;;;;;;;;;;;7.80;99.90;;;;;;5050999;28;25122;-90
2023/05/15 04:41:08;;;;;;;;;;;7.80;99.90;;;;;;5050918;28;20399;-90
2023/05/15 04:43:33;;;;;;;;;;;7.90;99.90;;;;;;5031141;28;19909;-91
2023/05/15 04:45:59;;;;;;;;;;;8.00;99.90;;;;;;5050392;28;19952;-91
2023/05/15 04:48:26;;;;;;;;;;;8.10;99.90;;;;;;5025901;28;20350;-91
2023/05/15 04:50:52;;;;;;;;;;;8.20;99.90;;;;;;5053480;28;19972;-91
2023/05/15 04:53:17;;;;;;;;;;;8.40;99.90;;;;;;5025365;28;19936;-91
2023/05/15 04:55:43;;;;;;;;;;;8.50;99.90;;;;;;5050746;28;20242;-91
2023/05/15 04:58:08;;;;;;;;;;;8.60;99.90;;;;;;5026940;28;19916;-90
2023/05/15 05:00:34;;;;;;;;;;;8.70;99.90;;;;;;5041014;28;20370;-91
2023/05/15 05:03:00;;;;;;;;;;;8.90;99.90;;;;;;5026256;28;19936;-91
2023/05/15 05:05:25;;;;;;;;;;;9.10;99.90;;;;;;5036947;28;24078;-91
2023/05/15 05:07:51;;;;;;;;;;;9.20;99.90;;;;;;5019046;28;19910;-91
2023/05/15 05:10:16;;;;;;;;;;;9.30;99.90;;;;;;5036673;28;19913;-91
2023/05/15 05:12:42;;;;;;;;;;;9.30;99.90;;;;;;5037723;28;19909;-90
2023/05/15 05:15:08;;;;;;;;;;;9.40;99.90;;;;;;5039000;28;19924;-91
2023/05/15 05:17:34;;;;;;;;;;;9.50;99.90;;;;;;5037034;28;19921;-91
2023/05/15 05:19:59;;;;;;;;;;;9.50;99.90;;;;;;5031916;28;19913;-90
2023/05/15 05:22:25;;;;;;;;;;;9.60;99.90;;;;;;5024485;28;19909;-92
2023/05/15 05:24:50;;;;;;;;;;;9.70;99.90;;;;;;5040235;28;19909;-91
2023/05/15 05:27:51;;;;;;;;;;;9.80;99.90;;;;;;5037570;28;20426;-90
2023/05/15 05:30:16;;;;;;;;;;;9.90;99.90;;;;;;5024990;28;19960;-90
2023/05/15 05:32:42;;;;;;;;;;;10.20;99.90;;;;;;5027488;28;20281;-91
2023/05/15 05:35:08;;;;;;;;;;;10.30;99.90;;;;;;5025761;28;19914;-91
2023/05/15 05:37:34;;;;;;;;;;;10.50;99.90;;;;;;5033441;28;19909;-91
2023/05/15 05:39:59;;;;;;;;;;;10.70;99.90;;;;;;5023826;28;19909;-90
2023/05/15 05:42:25;;;;;;;;;;;10.90;99.90;;;;;;5021365;28;20264;-91
2023/05/15 05:44:51;;;;;;;;;;;11.00;99.90;;;;;;5025117;28;19975;-91
2023/05/15 05:47:17;;;;;;;;;;;11.10;99.90;;;;;;5051070;28;19917;-91
2023/05/15 05:49:43;;;;;;;;;;;11.20;99.90;;;;;;5033863;28;20472;-91
2023/05/15 05:52:09;;;;;;;;;;;11.20;99.90;;;;;;5037755;28;19955;-91
2023/05/15 05:54:35;;;;;;;;;;;11.10;99.90;;;;;;5051100;28;19917;-91
2023/05/15 05:57:01;;;;;;;;;;;11.10;99.90;;;;;;5027491;28;19971;-91
2023/05/15 05:59:54;;;;;;;;;;;11.10;99.90;;;;;;5035660;28;19909;-91
2023/05/15 06:02:20;;;;;;;;;;;11.10;99.90;;;;;;5005609;28;19914;-91
2023/05/15 06:04:46;;;;;;;;;;;11.10;99.90;;;;;;5034750;28;19968;-91
2023/05/15 06:07:11;;;;;;;;;;;10.90;99.90;;;;;;5030236;28;20391;-91
2023/05/15 06:09:37;;;;;;;;;;;10.90;99.90;;;;;;5024942;28;19913;-91
2023/05/15 06:12:07;;;;;;;;;;;11.00;99.90;;;;;;5019959;28;19910;-91
2023/05/15 06:14:32;;;;;;;;;;;11.10;99.90;;;;;;5025205;28;19913;-91
2023/05/15 06:16:59;;;;;;;;;;;11.10;99.90;;;;;;5036294;28;20277;-91
2023/05/15 06:19:24;;;;;;;;;;;11.20;99.90;;;;;;5036257;28;19971;-91
2023/05/15 06:21:50;;;;;;;;;;;11.30;99.90;;;;;;5036494;28;19916;-91
2023/05/15 06:24:16;;;;;;;;;;;11.20;99.90;;;;;;5031246;28;19909;-91
2023/05/15 06:26:42;;;;;;;;;;;11.30;99.90;;;;;;5022064;28;20357;-91
2023/05/15 06:29:07;;;;;;;;;;;11.30;99.90;;;;;;5034672;28;20384;-90
2023/05/15 06:31:33;;;;;;;;;;;11.30;99.90;;;;;;5027884;28;19994;-92
2023/05/15 06:33:59;;;;;;;;;;;11.20;99.90;;;;;;5032690;28;19913;-91
2023/05/15 06:36:24;;;;;;;;;;;11.30;99.90;;;;;;5021577;28;19917;-92
2023/05/15 06:38:50;;;;;;;;;;;11.40;99.90;;;;;;5023253;28;19913;-91
2023/05/15 06:41:15;;;;;;;;;;;11.60;99.90;;;;;;5024631;28;19897;-91
2023/05/15 06:43:41;;;;;;;;;;;11.70;99.90;;;;;;5030263;28;20337;-91
2023/05/15 06:46:07;;;;;;;;;;;12.00;99.90;;;;;;5030516;28;19917;-91
2023/05/15 06:48:33;;;;;;;;;;;12.20;99.90;;;;;;5026528;28;19949;-92
2023/05/15 06:50:58;;;;;;;;;;;12.60;99.90;;;;;;5031460;28;19916;-91
2023/05/15 06:53:24;;;;;;;;;;;13.00;99.90;;;;;;5025519;28;19920;-91
2023/05/15 06:55:50;;;;;;;;;;;13.30;99.90;;;;;;5026762;28;19941;-92
2023/05/15 06:58:16;;;;;;;;;;;13.40;99.90;;;;;;5017110;28;19995;-91
2023/05/15 07:00:42;;;;;;;;;;;13.50;99.90;;;;;;5030294;28;19916;-92
2023/05/15 07:03:08;;;;;;;;;;;13.70;99.90;;;;;;5035121;28;19909;-92
2023/05/15 07:05:34;;;;;;;;;;;13.80;99.90;;;;;;5031547;28;20008;-92
2023/05/15 07:08:00;;;;;;;;;;;13.80;99.90;;;;;;5014728;28;19963;-91
2023/05/15 07:10:28;;;;;;;;;;;13.80;99.90;;;;;;5027387;28;19932;-91
2023/05/15 07:12:54;;;;;;;;;;;13.80;99.90;;;;;;5015955;28;19909;-91
2023/05/15 07:15:20;;;;;;;;;;;13.70;99.90;;;;;;5026069;28;19920;-91
2023/05/15 07:17:45;;;;;;;;;;;13.50;99.90;;;;;;5029466;28;20280;-92
2023/05/15 07:20:11;;;;;;;;;;;13.30;99.90;;;;;;5028024;28;20479;-91
2023/05/15 07:22:37;;;;;;;;;;;13.20;99.90;;;;;;5031986;28;19939;-92
2023/05/15 07:25:03;;;;;;;;;;;13.30;99.90;;;;;;5024166;28;19963;-91
2023/05/15 07:27:29;;;;;;;;;;;13.50;99.90;;;;;;5030241;28;19913;-92
2023/05/15 07:29:54;;;;;;;;;;;13.60;99.90;;;;;;5034060;28;24071;-91
2023/05/15 07:32:20;;;;;;;;;;;13.70;99.90;;;;;;5031269;28;19931;-91
2023/05/15 07:34:46;;;;;;;;;;;13.70;99.90;;;;;;5027741;28;20373;-91
2023/05/15 07:37:11;;;;;;;;;;;13.70;99.90;;;;;;5029742;28;19909;-91
2023/05/15 07:39:37;;;;;;;;;;;13.70;99.90;;;;;;5042352;28;20368;-92
2023/05/15 07:42:03;;;;;;;;;;;13.60;99.90;;;;;;5027753;28;19948;-92
2023/05/15 07:44:31;;;;;;;;;;;13.80;99.90;;;;;;5033028;28;19909;-92
2023/05/15 07:46:57;;;;;;;;;;;13.80;99.90;;;;;;5022475;28;19913;-92
2023/05/15 07:49:23;;;;;;;;;;;14.10;99.90;;;;;;5049361;28;19909;-91
2023/05/15 07:51:49;;;;;;;;;;;14.30;99.90;;;;;;5016377;28;19916;-92
2023/05/15 07:54:15;;;;;;;;;;;14.50;99.90;;;;;;5041416;28;19960;-91
2023/05/15 07:56:41;;;;;;;;;;;14.70;99.90;;;;;;5019729;28;20008;-91
2023/05/15 07:59:07;;;;;;;;;;;15.00;99.90;;;;;;5032052;28;20370;-92
2023/05/15 08:01:32;;;;;;;;;;;15.40;99.90;;;;;;5031728;28;19939;-92
2023/05/15 08:03:58;;;;;;;;;;;16.40;99.90;;;;;;5026255;28;19916;-92
2023/05/15 08:06:24;;;;;;;;;;;17.40;99.90;;;;;;5032813;28;19909;-92
2023/05/15 08:08:49;;;;;;;;;;;18.00;99.90;;;;;;5017578;28;20280;-91
2023/05/15 08:11:15;;;;;;;;;;;18.50;99.90;;;;;;5042267;28;19951;-91
2023/05/15 08:13:41;;;;;;;;;;;19.10;99.90;;;;;;5032798;28;19942;-91
2023/05/15 08:16:06;;;;;;;;;;;19.20;99.90;;;;;;5032980;28;20458;-91
2023/05/15 08:18:32;;;;;;;;;;;19.30;99.90;;;;;;5032401;28;19946;-91
2023/05/15 08:21:04;;;;;;;;;;;19.60;99.90;;;;;;5022038;28;19924;-91
2023/05/15 08:23:30;;;;;;;;;;;19.40;99.90;;;;;;5032582;28;19915;-90
2023/05/15 08:25:55;;;;;;;;;;;19.00;99.90;;;;;;5027846;28;20003;-91
2023/05/15 08:28:21;;;;;;;;;;;18.80;99.90;;;;;;5027639;28;19909;-92
2023/05/15 08:30:47;;;;;;;;;;;18.80;99.90;;;;;;5042058;28;19942;-91
2023/05/15 08:33:12;;;;;;;;;;;18.70;99.90;;;;;;5019690;28;19949;-91
2023/05/15 08:35:38;;;;;;;;;;;18.30;99.90;;;;;;5025789;28;19917;-90
2023/05/15 08:38:04;;;;;;;;;;;17.80;99.90;;;;;;5017789;28;19916;-92
2023/05/15 08:40:29;;;;;;;;;;;17.40;99.90;;;;;;5027260;28;20419;-91
2023/05/15 08:42:58;;;;;;;;;;;17.00;99.90;;;;;;5030740;28;19964;-91
2023/05/15 08:45:24;;;;;;;;;;;16.80;99.90;;;;;;5020088;28;19913;-91
2023/05/15 08:47:50;;;;;;;;;;;16.60;99.90;;;;;;5034040;28;19909;-92
2023/05/15 08:50:16;;;;;;;;;;;16.70;99.90;;;;;;5021074;28;19932;-91
2023/05/15 08:52:42;;;;;;;;;;;17.10;99.90;;;;;;5035325;28;19913;-92
2023/05/15 08:55:12;;;;;;;;;;;17.30;99.90;;;;;;5021905;28;19914;-91
2023/05/15 08:57:38;;;;;;;;;;;17.50;99.90;;;;;;5035682;28;19921;-92
2023/05/15 09:00:26;;;;;;;;;;;17.70;99.90;;;;;;5023743;28;19917;-91
2023/05/15 09:02:53;;;;;;;;;;;18.40;99.90;;;;;;5029232;28;19910;-92
2023/05/15 09:05:18;;;;;;;;;;;18.90;99.90;;;;;;5036732;28;20398;-91
2023/05/15 09:07:53;;;;;;;;;;;19.00;99.90;;;;;;5035228;28;19909;-92
2023/05/15 09:10:19;;;;;;;;;;;19.50;99.90;;;;;;5020869;28;19914;-91
2023/05/15 09:12:52;;;;;;;;;;;20.00;99.90;;;;;;5034687;28;20008;-90
2023/05/15 09:15:23;;;;;;;;;;;19.90;99.90;;;;;;5030922;28;19917;-92
2023/05/15 09:17:49;;;;;;;;;;;19.80;99.90;;;;;;5018850;28;19963;-93
2023/05/15 09:20:25;;;;;;;;;;;20.00;99.90;;;;;;5036226;28;20315;-93
2023/05/15 09:22:51;;;;;;;;;;;20.50;99.90;;;;;;5034826;28;20353;-92
2023/05/15 09:25:37;;;;;;;;;;;21.10;99.90;;;;;;5025510;28;19909;-92
2023/05/15 09:28:02;;;;;;;;;;;21.70;99.90;;;;;;5033423;28;19909;-92
2023/05/15 09:30:29;;;;;;;;;;;22.30;99.90;;;;;;5016212;28;19909;-92
2023/05/15 09:32:58;;;;;;;;;;;22.20;99.90;;;;;;5032701;28;20893;-92
2023/05/15 09:35:28;;;;;;;;;;;22.30;98.60;;;;;;5026501;28;19936;-93
2023/05/15 09:38:00;;;;;;;;;;;22.50;98.50;;;;;;5041034;28;19909;-93
2023/05/15 09:40:41;;;;;;;;;;;22.30;99.40;;;;;;5038093;28;19983;-93
2023/05/15 09:43:13;;;;;;;;;;;22.00;97.60;;;;;;5020962;28;19913;-93
2023/05/15 09:45:39;;;;;;;;;;;21.90;96.70;;;;;;5036992;28;20272;-92
2023/05/15 09:48:05;;;;;;;;;;;22.60;97.60;;;;;;5009784;28;19916;-92
2023/05/15 09:50:35;;;;;;;;;;;22.80;97.30;;;;;;5029772;28;19917;-93
2023/05/15 09:53:01;;;;;;;;;;;21.90;97.60;;;;;;5018972;28;20061;-93
2023/05/15 09:55:27;;;;;;;;;;;20.90;99.90;;;;;;5047415;28;19924;-93
2023/05/15 09:58:06;;;;;;;;;;;20.30;99.90;;;;;;5029840;28;19910;-93
2023/05/15 10:00:32;;;;;;;;;;;20.10;99.90;;;;;;5015409;28;20266;-92
2023/05/15 10:02:59;;;;;;;;;;;20.20;98.70;;;;;;5032540;28;19972;-93
2023/05/15 10:05:25;;;;;;;;;;;20.30;97.50;;;;;;5018165;28;19931;-93
2023/05/15 10:07:53;;;;;;;;;;;20.10;99.70;;;;;;5034152;28;19909;-93
2023/05/15 10:10:18;;;;;;;;;;;19.90;99.90;;;;;;5033486;28;19909;-94
2023/05/15 10:12:44;;;;;;;;;;;19.60;99.90;;;;;;5023734;28;19916;-93
2023/05/15 10:15:10;;;;;;;;;;;19.20;99.90;;;;;;5012006;28;19913;-91
2023/05/15 10:17:36;;;;;;;;;;;18.60;99.90;;;;;;5028446;28;20353;-90
2023/05/15 10:20:05;;;;;;;;;;;18.20;99.90;;;;;;5029144;28;19916;-91
2023/05/15 10:22:36;;;;;;;14.50;5.40;;;18.00;99.90;;;;;;5022096;28;19909;-90
2023/05/15 10:25:08;;;;;;;8.30;5.00;;;17.80;99.90;;;;;;5028605;28;20079;-90
2023/05/15 10:27:34;;;;;;;5.50;4.95;;;17.90;99.90;;;;;;5034794;28;20033;-92
2023/05/15 10:30:02;;;;;;;8.70;5.40;;;17.70;99.90;;;;;;5032168;28;20076;-93
2023/05/15 10:32:29;;;;;;;7.25;5.57;;;17.80;99.90;;;;;;5030459;28;20033;-92
2023/05/15 10:34:56;;;;;;;7.95;5.65;;;17.80;99.90;;;;;;5033311;28;20029;-92
2023/05/15 10:37:22;;;;;;;11.10;5.47;;;17.80;99.90;;;;;;5019389;28;20072;-94
2023/05/15 10:39:50;;;;;;;8.32;5.38;;;18.00;99.90;;;;;;5011370;28;20055;-92
2023/05/15 10:42:16;;;;;;;11.75;5.65;;;18.20;99.90;;;;;;5020985;28;20108;-91
2023/05/15 10:44:42;;;;;;;9.90;5.32;;;18.40;99.90;;;;;;5020132;28;20034;-92
2023/05/15 10:47:08;;;;;;;6.88;5.05;;;18.40;99.90;;;;;;5033854;28;20040;-92
2023/05/15 10:49:35;;;;;;;10.63;4.80;;;18.10;99.90;;;;;;5023602;28;20064;-90
2023/05/15 10:52:00;;;;;;;;;;;17.30;99.90;;;;;;5033609;28;20448;-92
2023/05/15 10:54:27;;;;;;;;;;;16.90;99.90;;;;;;5029404;28;19948;-91
2023/05/15 10:56:54;;;;;;;;;;;16.70;99.90;;;;;;5013783;28;19913;-91
2023/05/15 10:59:29;;;;;;;;;;;16.90;99.90;;;;;;5033512;28;19909;-92
2023/05/15 11:01:56;;;;;;;;;;;16.90;99.90;;;;;;5032823;28;20365;-92
2023/05/15 11:04:22;;;;;;;;;;;17.00;99.90;;;;;;5015470;28;19917;-91
2023/05/15 11:06:49;;;;;;;;;;;17.20;99.90;;;;;;5017632;28;19913;-91
2023/05/15 11:09:23;;;;;;;;;;;17.20;99.90;;;;;;5025086;28;19909;-91
2023/05/15 11:11:51;;;;;;;;;;;17.30;99.90;;;;;;5030250;28;19944;-91
2023/05/15 11:14:17;;;;;;;;;;;17.70;99.90;;;;;;5005715;28;20376;-91
2023/05/15 11:16:52;;;;;;;;;;;17.70;99.90;;;;;;5040355;28;19916;-91
2023/05/15 11:19:22;;;;;;;;;;;17.90;99.90;;;;;;5035935;28;19909;-91
2023/05/15 11:21:57;;;;;;;;;;;18.10;99.90;;;;;;5035307;28;19912;-91
2023/05/15 11:24:28;;;;;;;;;;;18.40;99.90;;;;;;5023689;28;19924;-92
2023/05/15 11:26:58;;;;;;;;;;;19.00;99.90;;;;;;5019588;28;19996;-91
2023/05/15 11:29:24;;;;;;;;;;;19.80;96.60;;;;;;5034100;28;20447;-92
2023/05/15 11:31:50;;;;;;;5.70;2.10;;;20.20;92.40;;;;;;5035929;28;20099;-91
2023/05/15 11:34:31;;;;;;;4.47;2.65;;;20.50;92.70;;;;;;5033575;28;20033;-92
2023/05/15 11:36:58;;;;;;;;;;;20.50;97.10;;;;;;5033880;28;20025;-92
2023/05/15 11:39:27;;;;;;;6.78;2.83;;;20.20;98.10;;;;;;5033853;28;19912;-90
2023/05/15 11:42:12;;;;;;;5.45;2.92;;;20.10;99.10;;;;;;5032971;28;20120;-92
2023/05/15 11:44:39;;;;;;;5.13;3.03;;;19.90;93.90;;;;;;5030272;28;20038;-92
2023/05/15 11:47:09;;;;;;;4.57;3.40;;;19.80;97.10;;;;;;5035684;28;20160;-92
2023/05/15 11:49:37;;;;;;;3.70;3.33;;;19.60;97.30;;;;;;5033416;28;20025;-92
2023/05/15 11:52:03;;;;;;;6.10;3.88;;;19.50;99.60;;;;;;5031225;28;20280;-91
2023/05/15 11:54:29;;;;;;;4.93;4.25;;;19.80;99.90;;;;;;5028858;28;20056;-92
2023/05/15 11:56:56;;;;;;;6.10;4.10;;;20.00;99.80;;;;;;5032997;28;20036;-92
2023/05/15 11:59:33;;;;;;;6.60;5.18;;;19.60;99.90;;;;;;5028242;28;20037;-92
2023/05/15 12:02:11;;;;;;;8.60;4.38;;;19.10;99.90;;;;;;5035249;28;20432;-92
2023/05/15 12:04:37;;;;;;;5.43;4.75;;;18.70;99.90;;;;;;5034021;28;20056;-93
2023/05/15 12:07:03;;;;;;;9.85;5.13;;;18.60;99.90;;;;;;5027472;28;20025;-91
2023/05/15 12:09:28;;;;;;;5.50;4.60;;;18.70;99.90;;;;;;5032679;28;20389;-92
2023/05/15 12:11:55;;;;;;;7.22;5.25;;;18.90;99.90;;;;;;5037518;28;20026;-91
2023/05/15 12:14:30;;;;;;;9.88;5.07;;;19.00;99.90;;;;;;5031794;28;20124;-91
2023/05/15 12:17:03;;;;;;;8.77;5.43;;;18.60;99.90;;;;;;5037383;28;20040;-91
2023/05/15 12:19:29;;;;;;;11.57;5.18;;;18.50;99.90;;;;;;5036933;28;20495;-90
2023/05/15 12:21:55;;;;;;;8.45;5.35;;;18.40;99.90;;;;;;5003650;28;20034;-91
2023/05/15 12:24:21;;;;;;;8.90;4.95;;;18.70;99.90;;;;;;5034511;28;20036;-91
2023/05/15 12:26:47;;;;;;;9.88;4.65;;;19.60;99.90;;;;;;5012962;28;20050;-91
2023/05/15 12:29:14;;;;;;;5.45;4.43;;;20.50;99.90;;;;;;5036968;28;20025;-92
2023/05/15 12:31:40;;;;;;;11.02;5.18;;;20.50;99.90;;;;;;5024789;28;20504;-92
2023/05/15 12:34:06;;;;;;;10.95;5.80;;;20.90;98.50;;;;;;5034122;28;20106;-94
2023/05/15 12:36:32;;;;;;;8.32;5.10;;;20.50;97.20;;;;;;5030903;28;20122;-90
2023/05/15 12:39:05;;;;;;;12.57;6.45;;;20.70;99.90;;;;;;5032828;28;20117;-91
2023/05/15 12:41:31;;;;;;;7.53;5.85;;;20.50;99.90;;;;;;5024366;28;20033;-91
2023/05/15 12:43:57;;;;;;;6.70;5.93;;;19.40;99.90;;;;;;5010365;28;20021;-90
2023/05/15 12:46:25;;;;;;;7.68;5.40;;;17.90;99.90;;;;;;5029622;28;20124;-91
2023/05/15 12:48:51;;;;;;;5.47;4.93;;;16.90;99.90;;;;;;5035862;28;20064;-90
2023/05/15 12:51:17;;;;;;;6.90;5.00;;;16.60;99.90;;;;;;5029168;28;20040;-90
2023/05/15 12:53:46;;;;;;;7.68;4.75;;;16.00;99.90;;;;;;5036518;28;20033;-90
2023/05/15 12:56:15;;;;;;;6.45;4.93;;;15.80;99.90;;;;;;5026262;28;20022;-90
2023/05/15 12:58:41;;;;;;;8.48;4.50;;;15.60;99.90;;;;;;5034783;28;20026;-90
2023/05/15 13:01:11;;;;;;;7.45;4.72;;;15.50;99.90;;;;;;5020255;28;20084;-90
2023/05/15 13:03:59;;;;;;;7.50;4.93;;;15.50;99.90;;;;;;5036246;28;20491;-90
2023/05/15 13:06:25;;;;;;;5.25;4.63;;;15.40;99.90;;;;;;5035130;28;20386;-90
2023/05/15 13:08:53;;;;;;;7.63;4.75;;;14.90;99.90;;;;;;5019799;28;20034;-90
2023/05/15 13:11:19;;;;;;;6.15;5.20;;;14.30;99.90;;;;;;5005251;28;20021;-90
2023/05/15 13:13:47;;;;;;;5.32;4.65;;;14.00;99.90;;;;;;5005853;28;20026;-90
2023/05/15 13:16:29;;;;;;;6.30;4.38;;;13.90;99.90;;;;;;5031568;28;20026;-90
2023/05/15 13:18:57;;;;;;;8.90;4.85;;;13.80;99.90;;;;;;5035076;28;20032;-92
2023/05/15 13:21:23;;;;;;;5.38;4.05;;;13.70;99.90;;;;;;5022891;28;20097;-91
2023/05/15 13:23:50;;;;;;;6.43;4.00;;;13.70;99.90;;;;;;5024550;28;20389;-90
2023/05/15 13:26:16;;;;;;;5.05;3.25;;;13.80;99.90;;;;;;5034821;28;20032;-90
2023/05/15 13:28:42;;;;;;;3.13;2.83;;;14.00;99.90;;;;;;5033711;28;20021;-91
2023/05/15 13:31:08;;;;;;;3.70;3.30;;;14.20;99.90;;;;;;5037733;28;20030;-92
2023/05/15 13:33:34;;;;;;;4.85;4.03;;;14.50;99.90;;;;;;5033341;28;20025;-90
2023/05/15 13:36:00;;;;;;;5.32;3.47;;;14.70;99.90;;;;;;5020863;28;20025;-90
2023/05/15 13:38:26;;;;;;;4.18;3.75;;;15.00;99.90;;;;;;5039870;28;20025;-91
2023/05/15 13:40:52;;;;;;;6.88;3.60;;;15.40;99.90;;;;;;5034590;28;20032;-90
2023/05/15 13:43:39;;;;;;;3.97;3.20;;;16.10;99.90;;;;;;5027683;28;20112;-90
2023/05/15 13:46:05;;;;;;;5.53;3.33;;;16.40;99.90;;;;;;5052039;28;20029;-92
2023/05/15 13:48:31;;;;;;;6.90;3.67;;;16.80;99.90;;;;;;5019142;28;20033;-91
2023/05/15 13:50:57;;;;;;;3.40;2.90;;;17.20;99.90;;;;;;5034581;28;20026;-91
2023/05/15 13:53:22;;;;;;;5.82;3.60;;;17.30;99.90;;;;;;5031300;28;20166;-91
2023/05/15 13:56:10;;;;;;;10.68;3.25;;;17.20;99.90;;;;;;5035985;28;20030;-91
2023/05/15 13:58:36;;;;;;;4.43;3.30;;;17.20;99.90;;;;;;5026108;28;20018;-91
2023/05/15 14:01:05;;;;;;;4.78;3.97;;;16.90;99.90;;;;;;5031922;28;20032;-92
2023/05/15 14:03:59;;;;;;;3.92;3.35;;;16.70;99.90;;;;;;5028226;28;20013;-89
2023/05/15 14:06:26;;;;;;;5.95;3.67;;;16.80;99.90;;;;;;5036173;28;20033;-91
2023/05/15 14:08:51;;;;;;;6.82;4.00;;;17.00;99.90;;;;;;5010309;28;20497;-91
2023/05/15 14:11:17;;;;;;;10.82;3.28;;;17.00;99.90;;;;;;5024129;28;20033;-91
2023/05/15 14:14:02;;;;;;;3.95;3.33;;;17.00;99.90;;;;;;5021314;28;20026;-91
2023/05/15 14:16:28;;;;;;;3.55;3.25;;;17.10;99.90;;;;;;5033387;28;20677;-92